Time;durP1;ratioP1;P1;durP2;ratioP2;P2;SDS_P1;SDS_P2;PMS_P1;PMS_P2;Temp;Humidity;BMP_temperature;BMP_pressure;BME280_temperature;BME280_humidity;BME280_pressure;Samples;Min_cycle;Max_cycle;Signal;HPM_P1;HPM_P2
2022/05/28 00:01:23;;;;;;;10.20;5.60;;;;;;;20.30;56.46;94759.75;5034133;22;20053;-79
2022/05/28 00:03:48;;;;;;;11.63;4.93;;;;;;;20.26;56.36;94764.84;5035368;28;20028;-82
2022/05/28 00:06:17;;;;;;;9.63;4.60;;;;;;;20.23;56.50;94764.66;5034156;28;20093;-79
2022/05/28 00:08:42;;;;;;;7.97;4.30;;;;;;;20.18;56.90;94760.25;5032379;28;20026;-79
2022/05/28 00:11:18;;;;;;;13.10;5.22;;;;;;;20.13;57.03;94755.06;5033352;28;20041;-81
2022/05/28 00:13:43;;;;;;;14.85;4.82;;;;;;;20.12;57.04;94750.06;5006386;28;20041;-81
2022/05/28 00:16:09;;;;;;;8.23;4.30;;;;;;;20.06;57.12;94744.91;5032802;28;20033;-82
2022/05/28 00:18:37;;;;;;;7.18;4.35;;;;;;;20.05;57.11;94747.84;5029711;28;20056;-80
2022/05/28 00:23:38;;;;;;;11.63;4.72;;;;;;;20.08;57.22;94747.25;5097904;22;20099;-80
2022/05/28 00:26:03;;;;;;;4.95;4.20;;;;;;;20.06;57.35;94749.41;5022590;28;20052;-82
2022/05/28 00:30:59;;;;;;;7.00;4.03;;;;;;;19.96;57.42;94736.38;5104199;22;20042;-81
2022/05/28 00:33:25;;;;;;;5.85;4.20;;;;;;;19.90;57.89;94721.72;5108233;22;20042;-81
2022/05/28 00:35:50;;;;;;;7.10;3.95;;;;;;;19.89;57.87;94713.03;5030197;28;20037;-80
2022/05/28 00:38:19;;;;;;;9.68;4.30;;;;;;;19.89;57.83;94712.25;5033219;28;20032;-81
2022/05/28 00:43:09;;;;;;;6.93;4.47;;;;;;;19.84;57.84;94707.81;5032708;23;20057;-81
2022/05/28 00:45:35;;;;;;;12.75;4.43;;;;;;;19.84;58.06;94720.22;5045846;23;20053;-80
2022/05/28 00:48:02;;;;;;;6.32;4.03;;;;;;;19.79;58.14;94707.91;4989107;28;20041;-81
2022/05/28 00:50:28;;;;;;;6.68;4.45;;;;;;;19.74;58.41;94706.16;5002966;28;20617;-82
2022/05/28 00:52:53;;;;;;;8.10;4.35;;;;;;;19.72;58.54;94708.31;5009522;28;20121;-83
2022/05/28 00:55:19;;;;;;;9.50;5.10;;;;;;;19.69;58.86;94705.47;4969665;28;20091;-81
2022/05/28 00:57:45;;;;;;;9.30;5.53;;;;;;;19.67;58.84;94704.97;5004102;28;20045;-81
2022/05/28 01:00:13;;;;;;;7.72;5.13;;;;;;;19.64;59.02;94706.34;4993227;28;20113;-81
2022/05/28 01:03:17;;;;;;;15.55;5.20;;;;;;;19.52;59.09;94724.44;4985155;28;20048;-81
2022/05/28 01:05:52;;;;;;;9.40;4.47;;;;;;;19.44;58.93;94746.22;4999935;23;20399;-83
2022/05/28 01:10:43;;;;;;;16.98;5.40;;;;;;;19.32;59.49;94745.88;5232961;22;20061;-80
2022/05/28 01:13:15;;;;;;;11.95;4.82;;;;;;;19.23;59.86;94734.44;5927601;22;20042;-79
2022/05/28 01:18:20;;;;;;;8.25;4.60;;;;;;;19.23;59.91;94768.72;5106808;22;20057;-81
2022/05/28 01:20:48;;;;;;;6.82;4.20;;;;;;;19.17;60.06;94799.59;5024993;28;20038;-80
2022/05/28 01:23:50;;;;;;;14.68;4.60;;;;;;;19.15;59.79;94786.72;5012170;28;20042;-82
2022/05/28 01:26:25;;;;;;;13.93;5.20;;;;;;;19.11;59.86;94783.09;4996488;28;20045;-78
2022/05/28 01:28:54;;;;;;;18.67;4.97;;;;;;;19.12;59.73;94783.88;5006196;28;20049;-80
2022/05/28 01:33:56;;;;;;;17.52;5.32;;;;;;;19.17;59.42;94792.47;5022068;22;20049;-80
2022/05/28 01:36:21;;;;;;;22.95;6.40;;;;;;;19.28;59.34;94793.13;4979209;28;20030;-79
2022/05/28 01:43:51;;;;;;;33.35;7.10;;;;;;;19.49;58.86;94780.41;5267390;22;20062;-81
2022/05/28 01:46:18;;;;;;;23.48;6.97;;;;;;;19.56;58.87;94783.50;5132309;22;20053;-80
2022/05/28 01:48:44;;;;;;;16.88;6.93;;;;;;;19.61;58.52;94786.06;4989993;28;20046;-80
2022/05/28 01:51:10;;;;;;;24.67;7.13;;;;;;;19.64;58.74;94788.09;5015630;28;20048;-80
2022/05/28 01:56:19;;;;;;;22.40;7.85;;;;;;;19.76;58.77;94788.44;4994894;28;20516;-80
2022/05/28 01:58:44;;;;;;;19.30;6.10;;;;;;;19.74;58.73;94790.59;5015852;28;20046;-81
2022/05/28 02:01:10;;;;;;;23.17;7.45;;;;;;;19.75;58.65;94791.38;5127624;22;20045;-82
2022/05/28 02:03:36;;;;;;;18.92;6.20;;;;;;;19.74;58.82;94790.59;5033936;28;20033;-80
2022/05/28 02:06:02;;;;;;;22.70;7.07;;;;;;;19.76;58.72;94788.44;5032887;22;20411;-80
2022/05/28 02:08:28;;;;;;;19.27;6.68;;;;;;;19.77;58.35;94781.31;5096099;22;20049;-78
2022/05/28 02:11:20;;;;;;;16.15;6.45;;;;;;;19.80;57.97;94783.38;5032437;28;20048;-80
2022/05/28 02:14:01;;;;;;;13.18;5.97;;;;;;;19.85;57.12;94777.22;5046884;28;20041;-81
2022/05/28 02:18:57;;;;;;;24.27;5.57;;;;;;;19.91;55.75;94779.47;5108585;22;20441;-81
2022/05/28 02:21:25;;;;;;;19.63;4.80;;;;;;;19.93;55.48;94781.84;5033388;28;20067;-81
2022/05/28 02:23:57;;;;;;;14.55;5.13;;;;;;;19.99;54.87;94780.66;5051322;22;20049;-80
2022/05/28 02:26:31;;;;;;;19.57;5.80;;;;;;;20.00;55.15;94772.44;5026482;28;20483;-81
2022/05/28 02:28:56;;;;;;;8.55;4.70;;;;;;;20.02;54.77;94780.09;5122500;22;20220;-80
2022/05/28 02:31:29;;;;;;;16.55;4.95;;;;;;;20.03;54.92;94781.66;5029990;28;20067;-80
2022/05/28 02:36:22;;;;;;;12.52;5.35;;;;;;;20.02;54.40;94775.59;5009051;28;20042;-81
2022/05/28 02:38:48;;;;;;;11.65;5.30;;;;;;;20.04;54.26;94772.66;4977814;28;20060;-80
2022/05/28 02:43:44;;;;;;;17.65;4.40;;;;;;;19.99;53.71;94759.53;5005416;28;20087;-81
2022/05/28 02:46:10;;;;;;;15.05;4.03;;;;;;;19.98;53.85;94755.34;5007435;28;20030;-79
2022/05/28 02:48:35;;;;;;;17.70;4.53;;;;;;;19.98;54.67;94752.69;4977868;23;20049;-80
2022/05/28 02:51:09;;;;;;;7.57;4.63;;;;;;;19.99;54.22;94744.50;5044385;28;20048;-80
2022/05/28 02:53:35;;;;;;;29.98;5.88;;;;;;;19.99;54.76;94754.25;5034107;28;20064;-80
2022/05/28 02:56:00;;;;;;;24.95;5.93;;;;;;;20.02;54.79;94774.81;5060780;22;20031;-79
2022/05/28 02:58:26;;;;;;;18.50;5.13;;;;;;;20.04;54.85;94776.09;4997528;28;20030;-79
2022/05/28 03:00:52;;;;;;;23.73;4.88;;;;;;;20.09;54.68;94775.22;4995712;28;20062;-79
2022/05/28 03:03:19;;;;;;;9.55;4.75;;;;;;;20.14;54.69;94777.75;4994138;28;20056;-82
2022/05/28 03:05:48;;;;;;;18.00;4.25;;;;;;;20.18;54.67;94756.84;5000967;28;20027;-81
2022/05/28 03:10:39;;;;;;;13.88;4.35;;;;;;;20.25;53.55;94759.88;5125191;22;20053;-80
2022/05/28 03:13:06;;;;;;;21.83;4.95;;;;;;;20.29;53.41;94763.47;5014449;28;20196;-80
2022/05/28 03:15:32;;;;;;;16.30;5.68;;;;;;;20.31;53.89;94770.03;5014032;28;20049;-80
2022/05/28 03:17:59;;;;;;;16.50;4.38;;;;;;;20.33;53.53;94765.22;5014278;28;20026;-80
2022/05/28 03:20:26;;;;;;;9.35;3.83;;;;;;;20.35;53.61;94762.31;4980337;28;20064;-80
2022/05/28 03:22:51;;;;;;;13.18;4.63;;;;;;;20.34;53.39;94766.81;4996975;28;20045;-81
2022/05/28 03:25:16;;;;;;;15.52;4.40;;;;;;;20.38;53.55;94764.38;5035470;23;20041;-80
2022/05/28 03:27:42;;;;;;;18.38;4.30;;;;;;;20.39;53.38;94753.50;5024329;28;20033;-80
2022/05/28 03:30:08;;;;;;;16.20;4.57;;;;;;;20.45;53.13;94761.34;5023746;28;20026;-80
2022/05/28 03:32:33;;;;;;;19.85;4.28;;;;;;;20.44;52.90;94755.28;5005181;28;20038;-80
2022/05/28 03:34:59;;;;;;;14.27;4.28;;;;;;;20.52;52.99;94754.59;5046170;28;20034;-80
2022/05/28 03:37:24;;;;;;;10.77;4.47;;;;;;;20.57;53.04;94759.00;5012991;22;20045;-80
2022/05/28 03:39:50;;;;;;;13.98;4.88;;;;;;;20.56;53.27;94752.94;5025390;28;20079;-80
2022/05/28 03:42:15;;;;;;;9.50;3.97;;;;;;;20.59;53.69;94754.97;5022649;28;20034;-79
2022/05/28 03:44:41;;;;;;;21.85;5.38;;;;;;;20.64;53.86;94748.81;5045753;28;20041;-80
2022/05/28 03:47:06;;;;;;;23.13;5.78;;;;;;;20.66;53.87;94751.94;5003875;22;20407;-82
2022/05/28 03:49:33;;;;;;;16.48;4.40;;;;;;;20.69;53.77;94746.06;4981236;28;20105;-80
2022/05/28 03:51:58;;;;;;;34.38;6.63;;;;;;;20.74;53.86;94743.31;4996792;28;20041;-79
2022/05/28 03:54:24;;;;;;;22.40;5.72;;;;;;;20.75;53.90;94731.66;5034075;23;20042;-82
2022/05/28 03:56:51;;;;;;;29.20;7.03;;;;;;;20.81;54.22;94733.09;5061632;23;20045;-82
2022/05/28 03:59:16;;;;;;;36.15;5.93;;;;;;;20.87;54.45;94731.94;5041491;28;20075;-81
2022/05/28 04:01:42;;;;;;;21.05;5.90;;;;;;;20.98;53.49;94722.69;5037504;28;20030;-82
2022/05/28 04:04:07;;;;;;;14.85;5.25;;;;;;;21.09;52.20;94730.38;5031420;28;20033;-80
2022/05/28 04:06:34;;;;;;;13.57;5.10;;;;;;;21.22;50.12;94730.34;5023457;28;20505;-82
2022/05/28 04:09:00;;;;;;;15.65;5.13;;;;;;;21.36;49.96;94732.97;4990192;28;20050;-82
2022/05/28 04:11:25;;;;;;;14.93;5.43;;;;;;;21.45;50.81;94725.84;5023026;28;20444;-79
2022/05/28 04:13:51;;;;;;;18.13;5.57;;;;;;;21.52;51.62;94728.88;4989729;28;20770;-82
2022/05/28 04:16:16;;;;;;;16.35;4.97;;;;;;;21.62;52.06;94740.25;5005625;28;20038;-82
2022/05/28 04:18:43;;;;;;;21.52;6.85;;;;;;;21.67;51.86;94772.69;5023433;28;20025;-82
2022/05/28 04:21:08;;;;;;;10.57;3.65;;;;;;;21.46;49.75;94806.78;5003049;28;20034;-81
2022/05/28 04:23:34;;;;;;;57.03;4.93;;;;;;;21.17;50.57;94822.25;5043478;28;20157;-80
2022/05/28 04:25:59;;;;;;;26.17;4.35;;;;;;;20.96;50.75;94777.72;5007572;28;20034;-79
2022/05/28 04:28:25;;;;;;;12.43;4.40;;;;;;;20.70;51.75;94731.78;5004673;28;20473;-82
2022/05/28 04:30:50;;;;;;;23.75;4.60;;;;;;;20.58;51.74;94707.72;5012787;28;20568;-83
2022/05/28 04:33:16;;;;;;;11.07;3.58;;;;;;;20.43;51.64;94700.13;5021006;28;20513;-83
2022/05/28 04:35:41;;;;;;;11.48;4.13;;;;;;;20.20;52.72;94697.38;5039046;28;20034;-82
2022/05/28 04:38:07;;;;;;;21.38;4.93;;;;;;;20.15;53.01;94710.66;5021183;28;20022;-82
2022/05/28 04:40:33;;;;;;;15.70;4.85;;;;;;;20.22;53.10;94721.63;5005615;28;20033;-80
2022/05/28 04:42:58;;;;;;;12.85;4.35;;;;;;;20.34;52.75;94748.34;5005209;28;20359;-82
2022/05/28 04:45:24;;;;;;;31.45;4.57;;;;;;;20.36;53.21;94763.88;5013190;28;20061;-80
2022/05/28 04:47:49;;;;;;;19.33;5.28;;;;;;;20.40;53.54;94764.84;5049992;28;20056;-81
2022/05/28 04:50:15;;;;;;;15.73;4.68;;;;;;;20.43;53.27;94768.78;5033020;28;20036;-80
2022/05/28 04:52:41;;;;;;;20.63;4.80;;;;;;;20.43;53.63;94768.78;5028112;28;20029;-81
2022/05/28 04:55:07;;;;;;;16.08;4.38;;;;;;;20.27;54.42;94774.34;4993343;28;20029;-81
2022/05/28 04:57:33;;;;;;;27.77;5.13;;;;;;;19.82;56.36;94769.88;5010020;28;20501;-80
2022/05/28 04:59:59;;;;;;;34.15;4.65;;;;;;;19.63;57.69;94768.09;5011458;28;20101;-81
2022/05/28 05:02:24;;;;;;;24.17;6.05;;;;;;;19.64;58.46;94771.50;5009505;28;20469;-81
2022/05/28 05:04:56;;;;;;;25.83;6.07;;;;;;;19.52;58.97;94776.41;5026258;28;20026;-81
2022/05/28 05:07:22;;;;;;;14.55;4.75;;;;;;;19.55;58.96;94770.63;5020287;28;20100;-81
2022/05/28 05:09:47;;;;;;;33.25;5.45;;;;;;;19.67;58.88;94776.19;5034002;28;20037;-82
2022/05/28 05:12:13;;;;;;;26.05;6.63;;;;;;;19.87;58.67;94788.28;5019552;28;20037;-81
2022/05/28 05:14:38;;;;;;;31.83;6.80;;;;;;;20.12;58.08;94779.13;5026871;28;20604;-81
2022/05/28 05:17:04;;;;;;;27.30;7.05;;;;;;;20.58;56.36;94763.97;5024383;28;20468;-81
2022/05/28 05:19:29;;;;;;;12.07;5.45;;;;;;;21.52;53.46;94773.84;5030835;28;20037;-81
2022/05/28 05:21:55;;;;;;;15.88;4.95;;;;;;;22.02;52.17;94780.81;5049002;28;20029;-82
2022/05/28 05:24:24;;;;;;;20.20;5.13;;;;;;;22.23;51.66;94783.75;5027849;28;20046;-81
2022/05/28 05:26:50;;;;;;;21.25;4.95;;;;;;;22.34;51.64;94791.13;5024220;28;20030;-82
2022/05/28 05:29:15;;;;;;;15.10;4.63;;;;;;;22.39;50.90;94795.50;5012970;28;20545;-81
2022/05/28 05:31:42;;;;;;;15.45;5.13;;;;;;;22.35;51.16;94799.84;4999273;28;20041;-81
2022/05/28 05:34:07;;;;;;;26.58;5.30;;;;;;;22.27;50.80;94813.81;5025110;28;20029;-81
2022/05/28 05:36:33;;;;;;;20.70;4.90;;;;;;;22.42;51.41;94800.19;5024463;28;20040;-81
2022/05/28 05:38:59;;;;;;;19.33;5.53;;;;;;;22.95;50.17;94801.94;5009227;28;20831;-81
2022/05/28 05:41:25;;;;;;;23.27;5.55;;;;;;;23.47;48.63;94797.44;5007483;28;20037;-81
2022/05/28 05:43:50;;;;;;;11.43;4.45;;;;;;;24.99;44.80;94794.13;5025468;28;20053;-81
2022/05/28 05:46:16;;;;;;;19.42;4.25;;;;;;;27.19;39.92;94792.84;4992131;28;20036;-81
2022/05/28 05:48:41;;;;;;;25.65;4.82;;;;;;;28.12;38.05;94784.69;5007857;28;20043;-82
2022/05/28 05:51:09;;;;;;;15.40;4.35;;;;;;;28.43;37.35;94781.28;5024643;28;20048;-83
2022/05/28 05:53:34;;;;;;;16.08;5.03;;;;;;;29.47;35.16;94765.66;5025812;28;20097;-82
2022/05/28 05:56:00;;;;;;;15.70;5.18;;;;;;;31.28;31.74;94762.53;5023458;28;20032;-82
2022/05/28 05:58:25;;;;;;;20.15;5.63;;;;;;;33.22;28.48;94770.09;5008236;28;20026;-81
2022/05/28 06:00:51;;;;;;;24.58;4.95;;;;;;;34.82;26.53;94762.38;5026288;28;20512;-82
2022/05/28 06:03:17;;;;;;;17.92;3.75;;;;;;;35.66;24.24;94754.44;5027002;28;20505;-83
2022/05/28 06:05:43;;;;;;;12.00;3.97;;;;;;;36.92;23.01;94750.47;5030571;28;20509;-83
2022/05/28 06:08:09;;;;;;;18.92;3.70;;;;;;;38.37;20.79;94758.03;5025945;28;20113;-82
2022/05/28 06:10:35;;;;;;;16.17;3.75;;;;;;;39.58;19.72;94750.50;5008278;28;20049;-82
2022/05/28 06:13:01;;;;;;;13.50;3.55;;;;;;;40.65;18.53;94741.88;5010229;28;20037;-82
2022/05/28 06:15:27;;;;;;;13.10;3.03;;;;;;;41.37;17.79;94745.09;5039367;28;20021;-81
2022/05/28 06:17:52;;;;;;;13.48;3.70;;;;;;;41.86;17.04;94738.66;5044537;28;20034;-81
2022/05/28 06:20:18;;;;;;;8.52;3.13;;;;;;;42.21;16.57;94743.03;5040579;28;20097;-81
2022/05/28 06:22:43;;;;;;;19.17;4.03;;;;;;;42.95;16.18;94721.91;5035905;28;20498;-82
2022/05/28 06:25:09;;;;;;;15.02;3.25;;;;;;;42.81;15.57;94726.66;5032321;28;20033;-82
2022/05/28 06:27:35;;;;;;;9.25;3.22;;;;;;;43.66;14.73;94728.38;5037971;28;20101;-82
2022/05/28 06:30:04;;;;;;;7.90;3.72;;;;;;;43.56;14.86;94715.81;5009680;28;20038;-82
2022/05/28 06:32:29;;;;;;;13.05;3.92;;;;;;;44.31;14.62;94727.47;5024865;28;20079;-82
2022/05/28 06:34:55;;;;;;;13.63;3.50;;;;;;;44.32;14.20;94720.00;5026421;28;20041;-82
2022/05/28 06:37:21;;;;;;;12.45;3.28;;;;;;;44.32;14.66;94725.47;5009987;28;20037;-82
2022/05/28 06:39:47;;;;;;;9.63;3.70;;;;;;;43.71;15.06;94727.81;5026331;28;20040;-83
2022/05/28 06:42:12;;;;;;;7.30;3.53;;;;;;;43.06;15.48;94711.38;5009100;28;20022;-81
2022/05/28 06:44:38;;;;;;;12.68;4.40;;;;;;;41.86;16.19;94712.09;5006895;28;20041;-82
2022/05/28 06:47:04;;;;;;;12.48;4.25;;;;;;;40.71;17.81;94710.19;5007755;28;20382;-82
2022/05/28 06:49:31;;;;;;;12.20;4.57;;;;;;;39.52;18.96;94703.16;5025224;28;20092;-80
2022/05/28 06:51:56;;;;;;;17.48;4.28;;;;;;;38.36;20.28;94695.94;5006475;28;20037;-80
2022/05/28 06:54:22;;;;;;;15.05;4.25;;;;;;;37.24;21.58;94695.91;5025781;28;20044;-80
2022/05/28 06:56:47;;;;;;;15.45;4.68;;;;;;;36.56;22.83;94689.66;5015553;28;20033;-80
2022/05/28 06:59:13;;;;;;;19.48;5.32;;;;;;;36.34;23.12;94692.56;5047031;28;20077;-80
2022/05/28 07:01:38;;;;;;;25.50;5.15;;;;;;;35.84;23.74;94686.72;5008785;28;20037;-80
2022/05/28 07:04:04;;;;;;;26.15;4.30;;;;;;;35.47;24.13;94681.88;5024855;28;20021;-79
2022/05/28 07:06:31;;;;;;;11.52;4.57;;;;;;;35.73;23.62;94667.06;5021773;28;20117;-79
2022/05/28 07:08:57;;;;;;;14.27;4.85;;;;;;;35.30;24.63;94674.59;5021866;28;20034;-80
2022/05/28 07:11:23;;;;;;;20.88;5.20;;;;;;;35.50;24.14;94664.88;5025211;28;20383;-81
2022/05/28 07:13:49;;;;;;;14.43;4.50;;;;;;;35.69;24.52;94653.56;4997197;28;20041;-81
2022/05/28 07:16:14;;;;;;;15.90;5.15;;;;;;;35.59;24.36;94659.78;5023134;28;20038;-81
2022/05/28 07:18:41;;;;;;;13.65;5.65;;;;;;;35.11;24.85;94654.97;5004339;28;20077;-80
2022/05/28 07:21:07;;;;;;;13.35;4.55;;;;;;;34.50;24.85;94667.13;5025828;28;20042;-80
2022/05/28 07:23:33;;;;;;;12.05;4.18;;;;;;;34.21;25.88;94663.66;5023732;28;20049;-80
2022/05/28 07:26:12;;;;;;;15.45;4.60;;;;;;;33.78;26.48;94662.81;5011294;28;20033;-76
2022/05/28 07:28:38;;;;;;;14.77;4.20;;;;;;;33.26;27.05;94663.06;5036508;28;20049;-76
2022/05/28 07:31:11;;;;;;;13.40;4.35;;;;;;;32.97;27.32;94654.09;5019659;28;20033;-75
2022/05/28 07:33:42;;;;;;;19.17;5.13;;;;;;;32.72;27.77;94648.59;4995030;28;20030;-74
2022/05/28 07:36:08;;;;;;;13.82;5.32;;;;;;;32.72;28.17;94643.19;5020006;28;20486;-74
2022/05/28 07:38:34;;;;;;;12.65;4.15;;;;;;;31.82;28.05;94661.75;5020006;28;20515;-76
2022/05/28 07:41:04;;;;;;;12.23;4.68;;;;;;;31.42;28.32;94652.53;5003047;28;20029;-76
2022/05/28 07:43:30;;;;;;;11.13;4.70;;;;;;;31.59;29.25;94659.97;5019127;28;20116;-77
2022/05/28 07:45:55;;;;;;;16.58;4.82;;;;;;;31.84;28.91;94662.16;5003773;28;20116;-77
2022/05/28 07:48:20;;;;;;;15.05;5.22;;;;;;;31.99;28.73;94654.97;4993543;28;20048;-77
2022/05/28 07:50:47;;;;;;;14.45;4.45;;;;;;;32.22;28.63;94652.88;5021663;28;20024;-77
2022/05/28 07:53:15;;;;;;;16.63;4.70;;;;;;;32.28;27.33;94650.63;5020987;28;20045;-78
2022/05/28 07:55:40;;;;;;;13.23;3.97;;;;;;;32.18;26.38;94646.66;5003137;28;20552;-77
2022/05/28 07:58:10;;;;;;;14.77;4.38;;;;;;;32.33;27.85;94647.56;5020436;28;20041;-77
2022/05/28 08:00:37;;;;;;;11.88;5.05;;;;;;;32.52;28.34;94639.22;5004054;28;20030;-77
2022/05/28 08:03:03;;;;;;;19.23;5.47;;;;;;;32.03;29.25;94637.72;5018597;28;20095;-76
2022/05/28 08:05:29;;;;;;;17.13;5.30;;;;;;;30.99;30.50;94635.88;5019369;28;20025;-76
2022/05/28 08:07:54;;;;;;;12.45;4.60;;;;;;;31.12;31.01;94638.34;4994494;28;20116;-76
2022/05/28 08:10:20;;;;;;;12.48;4.85;;;;;;;31.25;30.28;94634.28;4993466;28;20034;-76
2022/05/28 08:12:46;;;;;;;10.73;5.10;;;;;;;31.34;31.02;94626.69;5019879;28;20037;-77
2022/05/28 08:15:12;;;;;;;16.27;5.45;;;;;;;30.80;33.55;94635.28;5018130;28;20128;-77
2022/05/28 08:17:37;;;;;;;17.17;6.10;;;;;;;29.66;35.96;94628.94;5036079;28;20552;-77
2022/05/28 08:20:03;;;;;;;18.38;5.65;;;;;;;29.75;35.85;94629.47;5017757;28;20041;-77
2022/05/28 08:25:14;;;;;;;20.30;6.30;;;;;;;29.49;36.95;94632.09;5005010;28;20179;-77
2022/05/28 08:27:39;;;;;;;15.00;6.10;;;;;;;28.90;38.60;94626.00;5017694;28;20033;-76
2022/05/28 08:30:05;;;;;;;15.75;6.53;;;;;;;28.27;39.08;94636.09;5020253;28;20094;-76
2022/05/28 08:32:34;;;;;;;20.45;6.78;;;;;;;27.54;40.66;94626.69;5065051;23;20038;-77
2022/05/28 08:35:00;;;;;;;18.52;6.85;;;;;;;26.74;42.33;94622.25;5019141;28;20042;-76
2022/05/28 08:37:25;;;;;;;21.13;6.93;;;;;;;26.56;43.36;94618.31;5025333;28;20033;-74
2022/05/28 08:39:51;;;;;;;20.85;7.00;;;;;;;26.57;42.70;94627.84;4992849;28;20079;-77
2022/05/28 08:42:17;;;;;;;15.63;6.13;;;;;;;26.45;42.55;94625.22;5082090;23;20049;-76
2022/05/28 08:44:42;;;;;;;16.30;5.75;;;;;;;26.61;41.78;94629.50;5000905;28;20041;-75
2022/05/28 08:47:38;;;;;;;26.77;5.97;;;;;;;26.84;42.23;94626.31;5021950;28;20053;-75
2022/05/28 08:50:06;;;;;;;13.13;5.68;;;;;;;27.14;41.68;94618.78;5026630;28;20060;-74
2022/05/28 08:53:06;;;;;;;17.38;5.75;;;;;;;27.67;41.07;94620.19;5027360;28;20076;-75
2022/05/28 08:55:33;;;;;;;12.93;5.22;;;;;;;28.13;40.31;94619.69;5013783;28;20045;-75
2022/05/28 08:58:05;;;;;;;15.15;5.75;;;;;;;28.60;39.06;94617.72;5011492;28;20169;-75
2022/05/28 09:00:47;;;;;;;;;;;;;;;28.84;37.78;94615.91;5028200;28;20045;-75
2022/05/28 09:03:20;;;;;;;16.02;6.15;;;;;;;28.83;37.94;94615.13;5011425;28;19939;-76
2022/05/28 09:05:45;;;;;;;11.98;5.82;;;;;;;28.75;38.05;94615.31;5028138;28;20425;-76
2022/05/28 09:08:10;;;;;;;16.15;5.78;;;;;;;28.89;37.72;94610.28;5025419;28;20041;-76
2022/05/28 09:10:43;;;;;;;14.20;5.13;;;;;;;28.83;36.71;94609.78;5027594;28;20037;-76
2022/05/28 09:13:48;;;;;;;18.75;6.32;;;;;;;29.04;37.45;94595.28;5003814;28;20021;-76
2022/05/28 09:16:30;;;;;;;14.38;5.50;;;;;;;29.27;37.60;94590.72;4932277;29;20043;-76
2022/05/28 09:18:59;;;;;;;;;;;;;;;29.42;36.34;94591.75;4908793;29;20579;-76
2022/05/28 09:21:24;;;;;;;23.15;5.53;;;;;;;29.40;36.59;94588.66;4994103;28;20343;-76
2022/05/28 09:23:56;;;;;;;17.60;5.57;;;;;;;29.06;35.83;94577.72;5027628;28;20033;-77
2022/05/28 09:26:26;;;;;;;;;;;;;;;29.17;36.04;94584.06;4988737;28;20100;-77
2022/05/28 09:29:33;;;;;;;24.35;5.60;;;;;;;29.05;36.23;94581.53;5027412;28;20463;-77
2022/05/28 09:32:02;;;;;;;27.50;6.15;;;;;;;29.18;35.76;94582.16;4952323;29;20130;-77
2022/05/28 09:34:40;;;;;;;17.00;5.63;;;;;;;29.25;35.75;94577.69;5022571;28;20081;-77
2022/05/28 09:37:10;;;;;;;12.70;4.95;;;;;;;29.34;35.65;94580.16;5038298;28;20505;-78
2022/05/28 09:39:54;;;;;;;29.73;6.28;;;;;;;29.38;35.14;94569.50;5036335;28;20044;-79
2022/05/28 09:43:02;;;;;;;22.63;5.63;;;;;;;29.40;35.56;94567.22;5029423;28;20056;-78
2022/05/28 09:49:05;;;;;;;21.15;5.13;;;;;;;29.60;34.34;94552.66;5030249;28;20531;-76
2022/05/28 09:51:32;;;;;;;11.18;4.80;;;;;;;29.61;35.62;94546.16;5022489;28;20042;-77
2022/05/28 09:54:20;;;;;;;17.70;5.30;;;;;;;29.42;35.17;94546.22;5013019;28;20033;-76
2022/05/28 09:57:09;;;;;;;19.60;6.00;;;;;;;28.76;36.71;94545.41;5027802;28;20128;-76
2022/05/28 10:02:16;;;;;;;15.60;5.15;;;;;;;28.57;37.96;94543.50;5457412;22;20053;-78
2022/05/28 10:05:11;;;;;;;16.48;5.75;;;;;;;28.29;37.82;94537.56;5030921;28;20037;-77
2022/05/28 10:07:45;;;;;;;25.80;5.35;;;;;;;28.14;38.62;94544.50;5029568;28;20448;-76
2022/05/28 10:10:23;;;;;;;22.48;5.50;;;;;;;27.99;38.90;94537.31;5027739;28;20068;-76
2022/05/28 10:12:49;;;;;;;20.05;5.43;;;;;;;28.13;38.70;94534.16;5027630;28;20032;-76
2022/05/28 10:15:17;;;;;;;29.02;5.75;;;;;;;28.16;39.06;94534.25;5030259;28;20409;-76
2022/05/28 10:17:51;;;;;;;18.08;5.70;;;;;;;28.51;38.57;94528.88;5030813;28;20133;-77
2022/05/28 10:20:18;;;;;;;23.33;5.80;;;;;;;28.77;37.51;94519.41;5014719;28;20029;-77
2022/05/28 10:22:44;;;;;;;15.25;4.93;;;;;;;29.10;37.69;94516.22;5013867;28;20100;-77
2022/05/28 10:25:30;;;;;;;16.42;5.18;;;;;;;29.36;36.97;94512.81;4998930;28;20042;-76
2022/05/28 10:27:56;;;;;;;16.10;5.07;;;;;;;29.56;36.53;94517.78;5030103;28;20056;-76
2022/05/28 10:30:32;;;;;;;20.52;5.47;;;;;;;29.82;34.82;94508.97;5030571;28;20041;-77
2022/05/28 10:32:57;;;;;;;16.52;6.15;;;;;;;30.00;35.00;94497.72;5006399;28;20625;-77
2022/05/28 10:35:27;;;;;;;18.45;6.00;;;;;;;30.02;35.20;94495.44;5037435;28;20042;-77
2022/05/28 10:37:53;;;;;;;17.38;5.82;;;;;;;29.83;34.35;94499.81;5032564;28;20048;-78
2022/05/28 10:40:22;;;;;;;19.00;5.60;;;;;;;29.74;34.77;94496.59;5032877;28;20025;-76
2022/05/28 10:42:48;;;;;;;24.50;5.68;;;;;;;29.32;35.14;94494.03;5038259;23;20077;-77
2022/05/28 10:45:18;;;;;;;15.77;5.15;;;;;;;29.27;35.79;94487.03;5009748;28;20510;-75
2022/05/28 10:48:01;;;;;;;21.35;5.13;;;;;;;29.07;35.57;94490.91;5001859;23;20049;-75
2022/05/28 10:50:32;;;;;;;18.77;5.72;;;;;;;28.93;36.37;94488.00;5002990;28;20049;-77
2022/05/28 10:53:07;;;;;;;16.45;4.85;;;;;;;29.03;35.85;94484.75;4983737;28;20089;-76
2022/05/28 10:56:01;;;;;;;12.23;5.68;;;;;;;29.10;36.16;94489.44;4981212;28;20051;-76
2022/05/28 10:58:35;;;;;;;15.63;5.13;;;;;;;28.97;35.47;94486.19;4980212;28;20045;-76
2022/05/28 11:01:04;;;;;;;14.70;6.28;;;;;;;28.99;36.09;94482.00;4964256;28;20100;-76
2022/05/28 11:03:51;;;;;;;23.80;6.07;;;;;;;28.75;36.15;94493.00;4981167;28;20027;-76
2022/05/28 11:06:34;;;;;;;19.27;5.45;;;;;;;28.67;36.53;94484.09;4981262;28;20122;-76
2022/05/28 11:09:14;;;;;;;18.15;6.13;;;;;;;28.85;36.46;94478.28;4981907;28;20057;-76
2022/05/28 11:12:04;;;;;;;12.43;4.95;;;;;;;28.73;36.29;94465.06;5003650;23;20033;-76
2022/05/28 11:14:32;;;;;;;14.80;5.50;;;;;;;28.70;37.26;94463.88;5009581;28;20069;-76
2022/05/28 11:17:04;;;;;;;22.23;6.18;;;;;;;28.65;36.70;94464.94;5010799;28;20064;-76
2022/05/28 11:19:35;;;;;;;17.20;6.65;;;;;;;28.31;37.17;94461.25;5010945;28;20034;-76
2022/05/28 11:22:18;;;;;;;31.88;6.93;;;;;;;28.10;37.85;94450.84;5009141;28;20481;-76
2022/05/28 11:25:04;;;;;;;22.02;5.55;;;;;;;28.33;37.32;94453.63;5010766;28;20108;-76
2022/05/28 11:27:55;;;;;;;15.05;5.53;;;;;;;28.17;36.90;94454.81;5010888;28;20129;-80
2022/05/28 11:30:22;;;;;;;22.98;5.88;;;;;;;28.27;36.46;94455.03;5026324;28;20033;-76
2022/05/28 11:33:00;;;;;;;17.08;5.70;;;;;;;28.52;36.73;94444.81;5010450;28;20038;-76
2022/05/28 11:35:45;;;;;;;18.20;5.15;;;;;;;28.63;35.94;94445.78;5009457;28;20026;-77
2022/05/28 11:38:26;;;;;;;15.60;5.63;;;;;;;28.95;35.48;94434.88;5008043;28;20095;-76
2022/05/28 11:41:18;;;;;;;16.05;5.45;;;;;;;29.04;34.67;94435.41;5007116;23;20101;-78
2022/05/28 11:43:44;;;;;;;;;;;;;;;29.24;34.89;94436.88;5024744;28;20619;-77
2022/05/28 11:46:47;;;;;;;17.85;5.18;;;;;;;29.39;34.93;94431.75;5010618;28;19921;-76
2022/05/28 11:52:22;;;;;;;32.35;5.00;;;;;;;29.10;34.27;94431.28;5007567;28;20461;-77
2022/05/28 11:54:49;;;;;;;28.25;5.40;;;;;;;29.16;34.46;94429.88;5008346;28;20533;-77
2022/05/28 11:57:27;;;;;;;17.13;5.65;;;;;;;29.15;34.09;94422.22;5010504;28;20607;-76
2022/05/28 11:59:53;;;;;;;31.40;5.78;;;;;;;28.97;34.43;94419.25;5025130;28;20026;-76
2022/05/28 12:02:29;;;;;;;21.75;6.32;;;;;;;28.87;34.44;94417.94;4992486;28;20049;-76
2022/05/28 12:04:55;;;;;;;18.50;5.90;;;;;;;28.74;34.70;94413.09;4985454;28;20091;-76
2022/05/28 12:07:28;;;;;;;23.65;6.32;;;;;;;28.65;35.12;94408.75;5010078;28;20034;-76
2022/05/28 12:09:53;;;;;;;32.05;6.25;;;;;;;28.41;34.92;94406.41;5010735;28;20044;-77
2022/05/28 12:12:38;;;;;;;19.88;6.00;;;;;;;28.32;35.21;94408.53;5017475;28;20013;-76
2022/05/28 12:15:14;;;;;;;19.58;5.63;;;;;;;28.09;35.78;94411.88;5019445;28;20963;-77
2022/05/28 12:17:40;;;;;;;11.65;5.40;;;;;;;27.95;36.06;94410.81;5010698;28;20033;-77
2022/05/28 12:20:08;;;;;;;22.95;5.45;;;;;;;27.92;36.15;94406.97;5010009;28;20029;-76
2022/05/28 12:22:53;;;;;;;17.30;5.55;;;;;;;27.82;36.27;94404.84;5009802;28;20120;-77